Time;durP1;ratioP1;P1;durP2;ratioP2;P2;SDS_P1;SDS_P2;PMS_P1;PMS_P2;Temp;Humidity;BMP_temperature;BMP_pressure;BME280_temperature;BME280_humidity;BME280_pressure;Samples;Min_cycle;Max_cycle;Signal;HPM_P1;HPM_P2
2022/05/20 00:00:57;;;;;;;;;;;19.50;64.40;;;;;;5072561;28;1189;-77
2022/05/20 00:03:23;;;;;;;;;;;19.50;64.40;;;;;;5055224;28;1953;-77
2022/05/20 00:05:49;;;;;;;;;;;19.50;64.40;;;;;;5056099;28;1147;-78
2022/05/20 00:08:14;;;;;;;;;;;19.50;64.40;;;;;;5056565;28;1272;-77
2022/05/20 00:10:40;;;;;;;;;;;19.50;64.40;;;;;;5072434;28;1271;-77
2022/05/20 00:13:05;;;;;;;;;;;19.50;64.40;;;;;;5074473;28;1107;-78
2022/05/20 00:15:30;;;;;;;;;;;19.50;64.40;;;;;;5056304;28;1099;-77
2022/05/20 00:17:56;;;;;;;;;;;19.50;64.40;;;;;;5072042;28;1452;-76
2022/05/20 00:20:22;;;;;;;;;;;19.50;64.40;;;;;;5051015;28;1043;-76
2022/05/20 00:22:47;;;;;;;;;;;19.50;64.40;;;;;;5039704;28;1961;-76
2022/05/20 00:27:58;;;;;;;;;;;19.50;64.40;;;;;;5055198;28;1315;-78
2022/05/20 00:30:23;;;;;;;;;;;19.50;64.40;;;;;;5068121;28;977;-78
2022/05/20 00:32:49;;;;;;;;;;;19.50;64.40;;;;;;5057408;28;1194;-79
2022/05/20 00:35:14;;;;;;;;;;;19.50;64.40;;;;;;5075596;28;1087;-78
2022/05/20 00:37:44;;;;;;;;;;;19.50;64.50;;;;;;5038567;28;1188;-78
2022/05/20 00:40:09;;;;;;;;;;;19.50;64.40;;;;;;5068826;28;1195;-78
2022/05/20 00:42:36;;;;;;;;;;;19.50;64.50;;;;;;5058610;28;1878;-76
2022/05/20 00:45:05;;;;;;;;;;;19.50;64.40;;;;;;5054904;28;1067;-75
2022/05/20 00:47:30;;;;;;;;;;;19.50;64.40;;;;;;5055474;28;839;-76
2022/05/20 00:49:56;;;;;;;;;;;19.50;64.50;;;;;;5072948;28;1288;-76
2022/05/20 00:52:22;;;;;;;;;;;19.50;64.50;;;;;;5055594;28;1127;-76
2022/05/20 00:54:48;;;;;;;;;;;19.50;64.40;;;;;;5038401;28;1181;-76
2022/05/20 00:57:21;;;;;;;;;;;19.50;64.50;;;;;;5054872;28;1040;-76
2022/05/20 00:59:50;;;;;;;;;;;19.50;64.40;;;;;;5054365;28;1208;-78
2022/05/20 01:02:17;;;;;;;;;;;19.50;64.50;;;;;;5053413;28;1894;-78
2022/05/20 01:04:42;;;;;;;;;;;19.50;64.50;;;;;;5056665;28;1251;-78
2022/05/20 01:07:08;;;;;;;;;;;19.50;64.50;;;;;;5055634;28;1098;-78
2022/05/20 01:09:37;;;;;;;;;;;19.50;64.50;;;;;;5039776;28;1357;-78
2022/05/20 01:12:02;;;;;;;;;;;19.50;64.50;;;;;;5055835;28;1115;-78
2022/05/20 01:14:28;;;;;;;;;;;19.50;64.50;;;;;;5056201;28;1126;-78
2022/05/20 01:16:53;;;;;;;;;;;19.50;64.50;;;;;;5056059;28;1084;-78
2022/05/20 01:19:23;;;;;;;;;;;19.50;64.50;;;;;;5055822;28;1334;-78
2022/05/20 01:21:48;;;;;;;;;;;19.50;64.50;;;;;;5055795;28;1902;-78
2022/05/20 01:24:14;;;;;;;;;;;19.50;64.50;;;;;;5038579;28;2036;-78
2022/05/20 01:26:39;;;;;;;;;;;19.50;64.50;;;;;;5066405;28;1002;-78
2022/05/20 01:29:05;;;;;;;;;;;19.50;64.50;;;;;;5058512;28;1364;-78
2022/05/20 01:31:31;;;;;;;;;;;19.50;64.50;;;;;;5052916;28;1138;-78
2022/05/20 01:33:56;;;;;;;;;;;19.50;64.50;;;;;;5038932;28;1363;-78
2022/05/20 01:36:23;;;;;;;;;;;19.50;64.50;;;;;;5054502;28;1087;-76
2022/05/20 01:38:48;;;;;;;;;;;19.50;64.50;;;;;;5054096;28;1302;-75
2022/05/20 01:41:15;;;;;;;;;;;19.50;64.60;;;;;;5044650;28;1894;-76
2022/05/20 01:43:59;;;;;;;;;;;19.50;64.50;;;;;;5054353;28;1189;-76
2022/05/20 01:46:25;;;;;;;;;;;19.50;64.50;;;;;;5071940;28;1118;-76
2022/05/20 01:48:53;;;;;;;;;;;19.50;64.50;;;;;;5071910;28;1312;-76
2022/05/20 01:51:18;;;;;;;;;;;19.50;64.50;;;;;;5050554;28;1111;-77
2022/05/20 01:53:52;;;;;;;;;;;19.50;64.50;;;;;;5054293;28;1369;-76
2022/05/20 01:56:26;;;;;;;;;;;19.50;64.50;;;;;;5051439;28;1058;-77
2022/05/20 01:58:53;;;;;;;;;;;19.50;64.50;;;;;;5054082;28;1359;-77
2022/05/20 02:01:30;;;;;;;;;;;19.50;64.50;;;;;;5071894;28;1961;-77
2022/05/20 02:03:56;;;;;;;;;;;19.50;64.50;;;;;;5072964;28;828;-77
2022/05/20 02:06:25;;;;;;;;;;;19.50;64.50;;;;;;5055353;28;1139;-77
2022/05/20 02:08:57;;;;;;;;;;;19.50;64.50;;;;;;5073732;28;1388;-77
2022/05/20 02:11:25;;;;;;;;;;;19.50;64.60;;;;;;5073077;28;1095;-77
2022/05/20 02:13:52;;;;;;;;;;;19.50;64.60;;;;;;5055911;28;1088;-77
2022/05/20 02:16:19;;;;;;;;;;;19.50;64.60;;;;;;5056587;28;1044;-77
2022/05/20 02:18:52;;;;;;;;;;;19.50;64.60;;;;;;5056422;28;1346;-77
2022/05/20 02:21:18;;;;;;;;;;;19.50;64.50;;;;;;5058642;28;1902;-77
2022/05/20 02:23:48;;;;;;;;;;;19.50;64.50;;;;;;5057749;28;1112;-76
2022/05/20 02:26:14;;;;;;;;;;;19.50;64.50;;;;;;5055651;28;1233;-76
2022/05/20 02:28:41;;;;;;;;;;;19.50;64.60;;;;;;5057744;28;1307;-77
2022/05/20 02:31:07;;;;;;;;;;;19.50;64.60;;;;;;5057599;28;1167;-76
2022/05/20 02:33:33;;;;;;;;;;;19.50;64.60;;;;;;5068827;28;1607;-76
2022/05/20 02:36:02;;;;;;;;;;;19.50;64.50;;;;;;5059445;28;1099;-76
2022/05/20 02:38:28;;;;;;;;;;;19.50;64.50;;;;;;5055292;28;1206;-75
2022/05/20 02:40:53;;;;;;;;;;;19.50;64.50;;;;;;5075785;28;1281;-76
2022/05/20 02:43:19;;;;;;;;;;;19.50;64.50;;;;;;5059013;28;1971;-77
2022/05/20 02:45:44;;;;;;;;;;;19.50;64.50;;;;;;5042051;28;1377;-77
2022/05/20 02:48:10;;;;;;;;;;;19.50;64.60;;;;;;5076321;28;1267;-77
2022/05/20 02:50:35;;;;;;;;;;;19.50;64.60;;;;;;5047836;28;2173;-76
2022/05/20 02:53:01;;;;;;;;;;;19.50;64.60;;;;;;5076067;28;924;-77
2022/05/20 02:55:27;;;;;;;;;;;19.50;65.30;;;;;;5075615;28;1023;-77
2022/05/20 02:57:52;;;;;;;;;;;19.50;64.60;;;;;;5041332;28;1355;-77
2022/05/20 03:05:36;;;;;;;;;;;19.50;64.60;;;;;;5075589;28;1036;-76
2022/05/20 03:08:01;;;;;;;;;;;19.50;64.60;;;;;;5075494;28;1284;-76
2022/05/20 03:10:27;;;;;;;;;;;19.50;64.60;;;;;;5074773;28;1095;-76
2022/05/20 03:12:57;;;;;;;;;;;19.50;64.60;;;;;;5074878;28;1106;-77
2022/05/20 03:15:23;;;;;;;;;;;19.50;64.60;;;;;;5057118;28;1284;-77
2022/05/20 03:17:48;;;;;;;;;;;19.50;64.60;;;;;;5075216;28;1334;-76
2022/05/20 03:20:13;;;;;;;;;;;19.50;64.60;;;;;;5073896;28;1212;-76
2022/05/20 03:22:39;;;;;;;;;;;19.50;64.60;;;;;;5074905;28;1906;-77
2022/05/20 03:25:04;;;;;;;;;;;19.50;64.60;;;;;;5036783;28;1205;-77
2022/05/20 03:27:31;;;;;;;;;;;19.50;64.60;;;;;;5070793;28;1088;-77
2022/05/20 03:29:56;;;;;;;;;;;19.50;64.60;;;;;;5074047;28;1204;-77
2022/05/20 03:32:21;;;;;;;;;;;19.50;64.60;;;;;;5075108;28;1146;-77
2022/05/20 03:34:47;;;;;;;;;;;19.50;64.60;;;;;;5075655;28;1095;-77
2022/05/20 03:37:12;;;;;;;;;;;19.50;64.60;;;;;;5075634;28;1105;-77
2022/05/20 03:39:38;;;;;;;;;;;19.50;64.60;;;;;;5057192;28;1239;-77
2022/05/20 03:42:03;;;;;;;;;;;19.50;64.60;;;;;;5074261;28;1971;-77
2022/05/20 03:44:29;;;;;;;;;;;19.50;64.60;;;;;;5057445;28;1142;-76
2022/05/20 03:46:54;;;;;;;;;;;19.50;64.60;;;;;;5058212;28;1186;-77
2022/05/20 03:49:20;;;;;;;;;;;19.50;64.60;;;;;;5076769;28;1315;-77
2022/05/20 03:51:46;;;;;;;;;;;19.50;64.70;;;;;;5057573;28;1056;-77
2022/05/20 03:54:12;;;;;;;;;;;19.50;64.60;;;;;;5057920;28;1143;-77
2022/05/20 03:56:40;;;;;;;;;;;19.50;64.60;;;;;;5075281;28;1146;-77
2022/05/20 03:59:08;;;;;;;;;;;19.50;64.60;;;;;;5054787;28;1239;-77
2022/05/20 04:04:17;;;;;;;;;;;19.50;64.60;;;;;;5060938;28;1052;-77
2022/05/20 04:06:43;;;;;;;;;;;19.50;64.60;;;;;;5076061;28;1217;-77
2022/05/20 04:09:08;;;;;;;;;;;19.50;64.60;;;;;;5075309;28;1283;-77
2022/05/20 04:11:34;;;;;;;;;;;19.50;64.60;;;;;;5072382;28;1138;-78
2022/05/20 04:14:01;;;;;;;;;;;19.50;64.60;;;;;;5075190;28;1091;-77
2022/05/20 04:16:26;;;;;;;;;;;19.50;64.60;;;;;;5074496;28;1118;-76
2022/05/20 04:18:51;;;;;;;;;;;19.50;64.60;;;;;;5033865;28;1382;-77
2022/05/20 04:21:17;;;;;;;;;;;19.50;64.60;;;;;;5073099;28;1901;-77
2022/05/20 04:23:42;;;;;;;;;;;19.50;64.60;;;;;;5055576;28;1199;-77
2022/05/20 04:26:08;;;;;;;;;;;19.50;64.60;;;;;;5055766;28;1142;-77
2022/05/20 04:28:34;;;;;;;;;;;19.50;64.60;;;;;;5037422;28;1368;-77
2022/05/20 04:31:00;;;;;;;;;;;19.50;64.60;;;;;;5057307;28;1126;-77
2022/05/20 04:33:25;;;;;;;;;;;19.50;64.60;;;;;;5057379;28;1168;-77
2022/05/20 04:35:51;;;;;;;;;;;19.50;64.60;;;;;;5041467;28;1426;-77
2022/05/20 04:38:16;;;;;;;;;;;19.50;64.60;;;;;;5056373;28;1270;-77
2022/05/20 04:40:42;;;;;;;;;;;19.50;64.70;;;;;;5073810;28;1266;-77
2022/05/20 04:48:35;;;;;;;;;;;19.50;64.70;;;;;;5058536;28;1357;-77
2022/05/20 04:51:01;;;;;;;;;;;19.50;64.60;;;;;;5072518;28;1150;-77
2022/05/20 04:56:21;;;;;;;;;;;19.50;64.60;;;;;;5001479;28;1211;-77
2022/05/20 04:58:47;;;;;;;;;;;19.50;64.60;;;;;;5055859;28;1291;-77
2022/05/20 05:01:12;;;;;;;;;;;19.50;64.60;;;;;;5071461;28;1043;-77
2022/05/20 05:03:37;;;;;;;;;;;19.50;64.70;;;;;;5072114;28;2005;-76
2022/05/20 05:06:03;;;;;;;;;;;19.50;64.70;;;;;;5072452;28;1135;-75
2022/05/20 05:08:28;;;;;;;;;;;19.50;64.70;;;;;;5072638;28;1272;-76
2022/05/20 05:10:54;;;;;;;;;;;19.50;64.70;;;;;;5072149;28;679;-76
2022/05/20 05:13:19;;;;;;;;;;;19.50;64.70;;;;;;5072084;28;1103;-75
2022/05/20 05:15:45;;;;;;;;;;;19.50;64.70;;;;;;5072356;28;1071;-75
2022/05/20 05:18:14;;;;;;;;;;;19.50;64.70;;;;;;5061284;28;1772;-73
2022/05/20 05:20:43;;;;;;;;;;;19.50;64.70;;;;;;5047438;28;988;-72
2022/05/20 05:23:08;;;;;;;;;;;19.50;64.70;;;;;;5066988;28;1975;-72
2022/05/20 05:25:34;;;;;;;;;;;19.50;64.60;;;;;;5050505;28;1134;-73
2022/05/20 05:28:00;;;;;;;;;;;19.50;64.70;;;;;;5053747;28;1373;-72
2022/05/20 05:30:25;;;;;;;;;;;19.50;64.70;;;;;;5052856;28;1341;-73
2022/05/20 05:32:51;;;;;;;;;;;19.50;64.70;;;;;;5071772;28;1071;-72
2022/05/20 05:35:17;;;;;;;;;;;19.50;64.70;;;;;;5037545;28;1143;-72
2022/05/20 05:37:43;;;;;;;;;;;19.50;64.70;;;;;;5071953;28;1075;-75
2022/05/20 05:40:09;;;;;;;;;;;19.50;64.70;;;;;;5054653;28;1286;-72
2022/05/20 05:42:34;;;;;;;;;;;19.50;64.70;;;;;;5071706;28;1898;-73
2022/05/20 05:45:00;;;;;;;;;;;19.50;64.70;;;;;;5053673;28;1212;-73
2022/05/20 05:47:28;;;;;;;;;;;19.60;64.80;;;;;;5054289;28;1290;-73
2022/05/20 05:49:54;;;;;;;;;;;19.50;64.70;;;;;;5071215;28;1310;-72
2022/05/20 05:52:19;;;;;;;;;;;19.50;64.70;;;;;;5036905;28;1263;-71
2022/05/20 05:54:45;;;;;;;;;;;19.50;64.70;;;;;;5074448;28;1351;-71
2022/05/20 05:57:10;;;;;;;;;;;19.50;64.70;;;;;;5075568;28;1256;-72
2022/05/20 05:59:37;;;;;;;;;;;19.50;64.70;;;;;;5075005;28;1316;-70
2022/05/20 06:02:03;;;;;;;;;;;19.50;64.70;;;;;;5073567;28;1886;-71
2022/05/20 06:04:28;;;;;;;;;;;19.50;64.70;;;;;;5074718;28;1266;-72
2022/05/20 06:06:54;;;;;;;;;;;19.50;64.70;;;;;;5057073;28;1251;-69
2022/05/20 06:09:19;;;;;;;;;;;19.50;64.70;;;;;;5075418;28;1184;-70
2022/05/20 06:11:45;;;;;;;;;;;19.50;64.70;;;;;;5074876;28;1138;-72
2022/05/20 06:14:10;;;;;;;;;;;19.50;64.70;;;;;;5075327;28;1071;-72
2022/05/20 06:16:37;;;;;;;;;;;19.50;64.70;;;;;;5074520;28;1260;-69
2022/05/20 06:19:02;;;;;;;;;;;19.50;64.70;;;;;;5063426;28;1453;-69
2022/05/20 06:21:28;;;;;;;;;;;19.50;64.70;;;;;;5073910;28;1977;-71
2022/05/20 06:23:53;;;;;;;;;;;19.50;64.70;;;;;;5075697;28;1107;-71
2022/05/20 06:26:19;;;;;;;;;;;19.50;64.70;;;;;;5076379;28;1328;-72
2022/05/20 06:28:44;;;;;;;;;;;19.50;64.70;;;;;;5075798;28;1294;-72
2022/05/20 06:31:10;;;;;;;;;;;19.50;64.70;;;;;;5057331;28;1270;-71
2022/05/20 06:33:35;;;;;;;;;;;19.50;64.70;;;;;;5056556;28;1494;-71
2022/05/20 06:41:29;;;;;;;;;;;19.50;64.70;;;;;;5073778;28;1968;-73
2022/05/20 06:43:55;;;;;;;;;;;19.50;64.70;;;;;;5074501;28;1248;-72
2022/05/20 06:46:21;;;;;;;;;;;19.50;64.70;;;;;;5056881;28;1294;-74
2022/05/20 06:48:50;;;;;;;;;;;19.50;64.70;;;;;;5073846;28;1240;-72
2022/05/20 06:51:17;;;;;;;;;;;19.50;64.70;;;;;;5055882;28;1138;-71
2022/05/20 06:53:43;;;;;;;;;;;19.50;64.70;;;;;;5056103;28;1278;-72
2022/05/20 06:56:09;;;;;;;;;;;19.50;64.70;;;;;;5064896;28;1218;-73
2022/05/20 06:58:34;;;;;;;;;;;19.50;64.70;;;;;;5056257;28;1278;-73
2022/05/20 07:01:00;;;;;;;;;;;19.50;64.70;;;;;;5074847;28;1219;-74
2022/05/20 07:03:25;;;;;;;;;;;19.50;64.70;;;;;;5054502;28;1906;-74
2022/05/20 07:05:51;;;;;;;;;;;19.50;64.70;;;;;;5056821;28;1131;-74
2022/05/20 07:08:16;;;;;;;;;;;19.50;64.70;;;;;;5057065;28;1281;-74
2022/05/20 07:10:42;;;;;;;;;;;19.50;64.70;;;;;;5074882;28;1083;-74
2022/05/20 07:13:07;;;;;;;;;;;19.50;64.70;;;;;;5056935;28;1354;-74
2022/05/20 07:15:33;;;;;;;;;;;19.50;64.70;;;;;;5075090;28;1056;-75
2022/05/20 07:17:58;;;;;;;;;;;19.50;64.70;;;;;;5074718;28;1365;-74
2022/05/20 07:20:24;;;;;;;;;;;19.50;64.70;;;;;;5053312;28;1087;-75
2022/05/20 07:22:49;;;;;;;;;;;19.50;64.70;;;;;;5041299;28;1906;-75
2022/05/20 07:25:15;;;;;;;;;;;19.50;64.70;;;;;;5074863;28;1122;-74
2022/05/20 07:27:41;;;;;;;;;;;19.50;64.70;;;;;;5075177;28;1146;-75
2022/05/20 07:30:06;;;;;;;;;;;19.50;64.70;;;;;;5072775;28;2206;-75
2022/05/20 07:32:32;;;;;;;;;;;19.50;64.70;;;;;;5056538;28;1129;-76
2022/05/20 07:34:57;;;;;;;;;;;19.50;64.70;;;;;;5064848;28;1098;-75
2022/05/20 07:37:23;;;;;;;;;;;19.50;64.70;;;;;;5071600;28;1156;-75
2022/05/20 07:39:48;;;;;;;;;;;19.60;64.80;;;;;;5056568;28;1211;-76
2022/05/20 07:42:13;;;;;;;;;;;19.50;64.70;;;;;;5074092;28;1898;-74
2022/05/20 07:44:41;;;;;;;;;;;19.50;64.70;;;;;;5057086;28;1075;-75
2022/05/20 07:47:06;;;;;;;;;;;19.50;65.50;;;;;;5074473;28;1130;-75
2022/05/20 07:49:32;;;;;;;;;;;19.60;64.80;;;;;;5040410;28;1689;-75
2022/05/20 07:51:57;;;;;;;;;;;19.50;64.70;;;;;;5074944;28;1682;-75
2022/05/20 07:54:23;;;;;;;;;;;19.60;64.80;;;;;;5057454;28;1059;-75
2022/05/20 07:57:00;;;;;;;;;;;19.50;64.70;;;;;;5057042;28;1318;-75
2022/05/20 07:59:30;;;;;;;;;;;19.60;64.80;;;;;;5056546;28;1248;-75
2022/05/20 08:01:56;;;;;;;;;;;19.60;64.80;;;;;;5056121;28;1902;-75
2022/05/20 08:07:10;;;;;;;;;;;19.60;64.80;;;;;;5048079;28;1203;-75
2022/05/20 08:09:35;;;;;;;;;;;19.60;64.70;;;;;;5056936;28;1284;-75
2022/05/20 08:12:01;;;;;;;;;;;19.50;64.70;;;;;;5055520;28;1087;-75
2022/05/20 08:14:27;;;;;;;;;;;19.50;64.70;;;;;;5056537;28;1326;-75
2022/05/20 08:16:52;;;;;;;;;;;19.50;64.70;;;;;;5055429;28;1424;-76
2022/05/20 08:19:18;;;;;;;;;;;19.50;64.70;;;;;;5061765;28;1334;-75
2022/05/20 08:21:43;;;;;;;;;;;19.60;64.80;;;;;;5072934;28;1953;-75
2022/05/20 08:24:09;;;;;;;;;;;19.60;64.80;;;;;;5073665;28;1376;-75
2022/05/20 08:26:34;;;;;;;;;;;19.50;64.70;;;;;;5052554;28;1091;-75
2022/05/20 08:28:59;;;;;;;;;;;19.50;64.70;;;;;;5067671;28;1275;-75
2022/05/20 08:31:25;;;;;;;;;;;19.50;64.70;;;;;;5073011;28;1075;-75
2022/05/20 08:33:51;;;;;;;;;;;19.50;64.70;;;;;;5073403;28;1079;-74
2022/05/20 08:36:17;;;;;;;;;;;19.60;64.70;;;;;;5073723;28;1111;-75
2022/05/20 08:38:42;;;;;;;;;;;19.60;64.70;;;;;;5055177;28;1364;-75
2022/05/20 08:41:07;;;;;;;;;;;19.50;64.70;;;;;;5072715;28;1130;-75
2022/05/20 08:43:33;;;;;;;;;;;19.60;64.80;;;;;;5055397;28;1963;-75
2022/05/20 08:45:59;;;;;;;;;;;19.50;64.70;;;;;;5055662;28;1087;-76
2022/05/20 08:48:25;;;;;;;;;;;19.60;64.70;;;;;;5055339;28;1307;-75
2022/05/20 08:50:51;;;;;;;;;;;19.60;64.70;;;;;;5054315;28;1289;-74
2022/05/20 08:53:18;;;;;;;;;;;19.60;64.70;;;;;;5054911;28;1270;-75
2022/05/20 08:55:43;;;;;;;;;;;19.60;64.70;;;;;;5072974;28;1336;-76
2022/05/20 08:58:09;;;;;;;;;;;19.60;64.70;;;;;;5053918;28;1370;-76
2022/05/20 09:00:34;;;;;;;;;;;19.60;64.70;;;;;;5037296;28;1428;-76
2022/05/20 09:03:06;;;;;;;;;;;19.60;64.70;;;;;;5072173;28;1910;-76
2022/05/20 09:05:33;;;;;;;;;;;19.50;64.70;;;;;;5072920;28;1235;-76
2022/05/20 09:08:00;;;;;;;;;;;19.60;64.70;;;;;;5054674;28;1315;-76
2022/05/20 09:10:41;;;;;;;;;;;19.50;64.70;;;;;;5071699;28;1083;-76
2022/05/20 09:13:17;;;;;;;;;;;19.60;64.70;;;;;;5072983;28;1099;-78
2022/05/20 09:15:43;;;;;;;;;;;19.50;64.70;;;;;;5073383;28;1067;-77
2022/05/20 09:18:27;;;;;;;;;;;19.60;64.80;;;;;;5035937;28;1892;-78
2022/05/20 09:20:52;;;;;;;;;;;19.60;64.80;;;;;;5059821;28;1341;-78
2022/05/20 09:23:20;;;;;;;;;;;19.70;65.00;;;;;;5054809;28;1902;-78
2022/05/20 09:25:47;;;;;;;;;;;19.70;65.30;;;;;;5054847;28;1123;-79
2022/05/20 09:28:48;;;;;;;;;;;19.80;65.30;;;;;;5053734;28;1233;-79
2022/05/20 09:31:16;;;;;;;;;;;19.80;65.20;;;;;;4985466;28;1310;-77
2022/05/20 09:33:47;;;;;;;;;;;19.80;64.80;;;;;;5061761;28;1295;-78
2022/05/20 09:36:12;;;;;;;;;;;19.80;64.10;;;;;;5055135;28;1099;-78
2022/05/20 09:38:39;;;;;;;;;;;19.90;63.40;;;;;;5053834;28;1424;-79
2022/05/20 09:41:24;;;;;;;;;;;19.90;63.10;;;;;;5054041;28;1110;-79
2022/05/20 09:43:56;;;;;;;;;;;19.90;62.80;;;;;;5071678;28;1145;-78
2022/05/20 09:46:29;;;;;;;;;;;20.00;63.00;;;;;;5051539;28;1067;-80
2022/05/20 09:48:59;;;;;;;;;;;20.00;63.10;;;;;;5051328;28;1294;-79
2022/05/20 09:51:25;;;;;;;;;;;20.00;62.90;;;;;;5055417;28;1027;-79
2022/05/20 09:54:09;;;;;;;;;;;20.10;62.90;;;;;;5034261;28;1180;-79
2022/05/20 09:56:35;;;;;;;;;;;20.10;62.90;;;;;;5066904;28;1234;-78
2022/05/20 09:59:05;;;;;;;;;;;20.10;62.70;;;;;;5037751;28;1299;-77
2022/05/20 10:01:30;;;;;;;;;;;20.10;62.50;;;;;;5036765;28;1902;-78
2022/05/20 10:03:57;;;;;;;;;;;20.10;62.40;;;;;;5049196;28;1684;-78
2022/05/20 10:06:27;;;;;;;;;;;20.10;62.60;;;;;;5057193;28;1767;-78
2022/05/20 10:09:01;;;;;;;;;;;20.10;62.50;;;;;;5039213;28;1508;-79
2022/05/20 10:11:27;;;;;;;;;;;20.20;62.20;;;;;;5067109;28;1220;-78
2022/05/20 10:14:00;;;;;;;;;;;20.20;61.30;;;;;;5056466;28;1103;-78
2022/05/20 10:16:45;;;;;;;;;;;20.20;61.10;;;;;;5055260;28;1131;-78
2022/05/20 10:19:30;;;;;;;;;;;20.20;60.90;;;;;;5053975;28;1318;-78
2022/05/20 10:22:14;;;;;;;;;;;20.20;60.90;;;;;;5053602;28;1898;-78
2022/05/20 10:24:58;;;;;;;;;;;20.20;61.00;;;;;;5054259;28;1127;-78
2022/05/20 10:27:27;;;;;;;;;;;20.20;60.50;;;;;;5071800;28;1107;-78
2022/05/20 10:32:41;;;;;;;;;;;20.20;60.10;;;;;;5071833;28;1166;-78
2022/05/20 10:35:09;;;;;;;;;;;20.20;60.20;;;;;;5037747;28;1247;-78
2022/05/20 10:37:40;;;;;;;;;;;20.20;60.10;;;;;;5034456;28;1342;-78
2022/05/20 10:40:35;;;;;;;;;;;20.20;60.20;;;;;;5067810;28;1197;-79
2022/05/20 10:43:19;;;;;;;;;;;20.20;60.20;;;;;;5018843;28;1956;-78
2022/05/20 10:48:35;;;;;;;;;;;20.30;60.20;;;;;;5060086;28;1294;-79
2022/05/20 10:51:15;;;;;;;;;;;20.30;60.20;;;;;;5075453;28;1052;-78
2022/05/20 10:53:43;;;;;;;;;;;20.40;59.90;;;;;;5076594;28;1059;-78
2022/05/20 10:56:09;;;;;;;;;;;20.40;59.90;;;;;;5075520;28;1082;-78
2022/05/20 10:58:48;;;;;;;;;;;20.40;59.70;;;;;;5075604;28;1222;-79
2022/05/20 11:01:33;;;;;;;;;;;20.40;59.30;;;;;;5055691;28;1083;-78
2022/05/20 11:04:18;;;;;;;;;;;20.40;60.10;;;;;;5057564;28;1079;-78
2022/05/20 11:06:51;;;;;;;;;;;20.40;59.40;;;;;;5057398;28;1290;-78
2022/05/20 11:09:20;;;;;;;;;;;20.40;59.70;;;;;;5037314;28;1366;-78
2022/05/20 11:11:51;;;;;;;;;;;20.40;59.70;;;;;;5043214;28;1138;-78
2022/05/20 11:14:35;;;;;;;;;;;20.40;59.30;;;;;;5056276;28;1171;-78
2022/05/20 11:17:01;;;;;;;;;;;20.40;58.20;;;;;;5074455;28;1107;-78
2022/05/20 11:19:26;;;;;;;;;;;20.40;57.80;;;;;;5071952;28;1357;-78
2022/05/20 11:22:02;;;;;;;;;;;20.50;57.70;;;;;;5055995;28;1898;-78
2022/05/20 11:24:31;;;;;;;;;;;20.40;57.80;;;;;;5056974;28;1170;-78
2022/05/20 11:26:56;;;;;;;;;;;20.50;58.00;;;;;;5056871;28;1350;-78
2022/05/20 11:29:21;;;;;;;;;;;20.50;58.00;;;;;;5075518;28;1292;-79
2022/05/20 11:31:57;;;;;;;;;;;20.50;58.30;;;;;;5055852;28;1102;-78
2022/05/20 11:34:35;;;;;;;;;;;20.50;58.20;;;;;;5040491;28;1320;-79
2022/05/20 11:37:07;;;;;;;;;;;20.50;58.00;;;;;;5074321;28;1016;-79
2022/05/20 11:39:35;;;;;;;;;;;20.50;56.20;;;;;;5074481;28;1309;-78
2022/05/20 11:42:12;;;;;;;;;;;20.40;56.40;;;;;;5074218;28;1898;-79
2022/05/20 11:44:41;;;;;;;;;;;20.40;56.40;;;;;;5056964;28;1164;-79
2022/05/20 11:47:12;;;;;;;;;;;20.40;56.50;;;;;;5074394;28;1239;-79
2022/05/20 11:49:41;;;;;;;;;;;20.40;56.10;;;;;;5052743;28;1336;-78
2022/05/20 11:52:16;;;;;;;;;;;20.50;55.80;;;;;;5049884;28;1321;-79
2022/05/20 11:54:55;;;;;;;;;;;20.40;54.60;;;;;;5066513;28;1059;-79
2022/05/20 11:57:22;;;;;;;;;;;20.50;54.40;;;;;;5040278;28;1094;-79
2022/05/20 11:59:47;;;;;;;;;;;20.50;54.50;;;;;;5066369;28;1285;-78
2022/05/20 12:02:14;;;;;;;;;;;20.50;54.00;;;;;;5072943;28;1898;-79
2022/05/20 12:04:39;;;;;;;;;;;20.50;54.20;;;;;;5037741;28;1329;-79
2022/05/20 12:07:10;;;;;;;;;;;20.50;54.30;;;;;;5055357;28;1085;-79
2022/05/20 12:09:37;;;;;;;;;;;20.50;54.50;;;;;;5037925;28;1281;-79
2022/05/20 12:12:17;;;;;;;;;;;20.50;54.40;;;;;;5038963;28;1162;-79
2022/05/20 12:15:02;;;;;;;;;;;20.50;54.40;;;;;;5073450;28;1103;-79
2022/05/20 12:17:28;;;;;;;;;;;20.50;54.60;;;;;;5073290;28;1125;-79
2022/05/20 12:25:32;;;;;;;;;;;20.50;54.90;;;;;;5058926;28;1111;-78
2022/05/20 12:28:05;;;;;;;;;;;20.50;54.30;;;;;;5073623;28;1291;-78
2022/05/20 12:30:37;;;;;;;;;;;20.50;54.60;;;;;;5055119;28;1083;-78
2022/05/20 12:33:03;;;;;;;;;;;20.50;54.60;;;;;;5055373;28;1467;-78
2022/05/20 12:35:29;;;;;;;;;;;20.50;54.10;;;;;;5054716;28;1235;-78
2022/05/20 12:37:56;;;;;;;;;;;20.50;54.50;;;;;;5051317;28;1322;-79
2022/05/20 12:40:24;;;;;;;;;;;20.50;54.90;;;;;;5068448;28;1107;-77
2022/05/20 12:42:57;;;;;;;;;;;20.50;55.10;;;;;;5073759;28;1890;-78
2022/05/20 12:45:23;;;;;;;;;;;20.50;55.40;;;;;;5057197;28;1046;-78
2022/05/20 12:47:48;;;;;;;;;;;20.50;55.60;;;;;;5056358;28;1091;-78
2022/05/20 12:50:13;;;;;;;;;;;20.50;55.20;;;;;;5055932;28;1369;-78
2022/05/20 12:52:46;;;;;;;;;;;20.50;55.10;;;;;;5074971;28;1154;-78
2022/05/20 12:55:17;;;;;;;;;;;20.50;55.30;;;;;;5039101;28;1189;-78
2022/05/20 12:57:48;;;;;;;;;;;20.50;55.50;;;;;;5074060;28;1142;-78
2022/05/20 13:00:14;;;;;;;;;;;20.50;55.70;;;;;;5073580;28;1263;-78
2022/05/20 13:02:51;;;;;;;;;;;20.50;55.80;;;;;;5052786;28;1962;-78
2022/05/20 13:05:28;;;;;;;;;;;20.50;55.90;;;;;;5055681;28;1100;-78
2022/05/20 13:07:54;;;;;;;;;;;20.50;56.20;;;;;;5055139;28;1359;-78
2022/05/20 13:10:40;;;;;;;;;;;20.50;56.20;;;;;;5054901;28;1075;-78
2022/05/20 13:13:07;;;;;;;;;;;20.50;56.20;;;;;;5071932;28;1138;-79
2022/05/20 13:15:38;;;;;;;;;;;20.50;56.40;;;;;;5055763;28;1150;-77
2022/05/20 13:18:06;;;;;;;;;;;20.50;55.90;;;;;;5072297;28;1329;-77
2022/05/20 13:20:32;;;;;;;;;;;20.50;56.10;;;;;;5050826;28;1150;-78
2022/05/20 13:22:58;;;;;;;;;;;20.50;55.70;;;;;;5056224;28;1971;-77
2022/05/20 13:25:24;;;;;;;;;;;20.50;55.90;;;;;;5038343;28;1260;-77
2022/05/20 13:27:49;;;;;;;;;;;20.50;54.40;;;;;;5054762;28;1215;-77
2022/05/20 13:30:33;;;;;;;;;;;20.60;55.00;;;;;;5054678;28;1215;-77
2022/05/20 13:33:00;;;;;;;;;;;20.50;55.40;;;;;;5042241;28;1151;-76
2022/05/20 13:35:25;;;;;;;;;;;20.50;55.60;;;;;;5053708;28;1184;-76
2022/05/20 13:37:51;;;;;;;;;;;20.60;56.30;;;;;;5050496;28;1086;-76
2022/05/20 13:40:25;;;;;;;;;;;20.50;57.00;;;;;;5050507;28;1358;-77
2022/05/20 13:42:51;;;;;;;;;;;20.50;57.40;;;;;;5036988;28;1957;-77
2022/05/20 13:45:18;;;;;;;;;;;20.50;58.10;;;;;;5051081;28;2129;-77
2022/05/20 13:50:27;;;;;;;;;;;20.40;59.20;;;;;;5051922;28;1059;-76
2022/05/20 13:52:54;;;;;;;;;;;20.40;60.10;;;;;;5054129;28;1366;-76
2022/05/20 13:55:27;;;;;;;;;;;20.30;60.40;;;;;;5053812;28;1114;-77
2022/05/20 13:57:53;;;;;;;;;;;20.30;60.80;;;;;;5054421;28;1056;-76
2022/05/20 14:00:21;;;;;;;;;;;20.30;61.00;;;;;;5072165;28;1134;-77
2022/05/20 14:02:51;;;;;;;;;;;20.30;61.10;;;;;;5040028;28;1891;-76
2022/05/20 14:05:18;;;;;;;;;;;20.20;61.10;;;;;;5072180;28;1059;-77
2022/05/20 14:07:44;;;;;;;;;;;20.20;61.20;;;;;;5054438;28;1427;-77
2022/05/20 14:10:28;;;;;;;;;;;20.20;60.80;;;;;;5037688;28;1331;-75
2022/05/20 14:12:58;;;;;;;;;;;20.20;60.90;;;;;;5067049;28;1279;-74
2022/05/20 14:15:44;;;;;;;;;;;20.20;61.00;;;;;;5073253;28;1087;-74
2022/05/20 14:18:11;;;;;;;;;;;20.20;61.00;;;;;;5070859;28;1397;-72
2022/05/20 14:20:37;;;;;;;;;;;20.10;61.10;;;;;;5065130;28;1247;-72
2022/05/20 14:23:09;;;;;;;;;;;20.10;61.10;;;;;;5074865;28;1906;-74
2022/05/20 14:25:44;;;;;;;;;;;20.10;61.10;;;;;;5075586;28;1350;-74
2022/05/20 14:28:15;;;;;;;;;;;20.10;61.30;;;;;;5057064;28;1341;-73
2022/05/20 14:30:48;;;;;;;;;;;20.10;61.30;;;;;;5075225;28;1107;-76
2022/05/20 14:33:36;;;;;;;;;;;20.10;61.40;;;;;;5057278;28;1375;-76
2022/05/20 14:36:07;;;;;;;;;;;20.10;61.50;;;;;;5051552;28;1223;-76
2022/05/20 14:38:33;;;;;;;;;;;20.10;61.70;;;;;;5040100;28;1360;-75
2022/05/20 14:41:01;;;;;;;;;;;20.10;61.70;;;;;;5053935;28;1342;-79
2022/05/20 14:43:29;;;;;;;;;;;20.10;61.70;;;;;;5037500;28;1906;-78
2022/05/20 14:45:55;;;;;;;;;;;20.10;61.70;;;;;;5074507;28;1118;-77
2022/05/20 14:48:26;;;;;;;;;;;20.10;61.40;;;;;;5076210;28;1290;-77
2022/05/20 14:50:51;;;;;;;;;;;20.10;62.10;;;;;;5045397;28;1064;-77
2022/05/20 14:53:27;;;;;;;;;;;20.10;62.40;;;;;;5057747;28;1154;-77
2022/05/20 14:55:54;;;;;;;;;;;20.10;62.20;;;;;;5054418;28;1067;-77
2022/05/20 14:58:25;;;;;;;;;;;20.10;62.10;;;;;;5057828;28;1350;-77
2022/05/20 15:00:50;;;;;;;;;;;20.10;62.00;;;;;;5075167;28;1258;-77
2022/05/20 15:03:16;;;;;;;;;;;20.10;62.00;;;;;;5075582;28;1949;-77
2022/05/20 15:05:42;;;;;;;;;;;20.10;62.10;;;;;;5074813;28;1178;-76
2022/05/20 15:08:09;;;;;;;;;;;20.10;62.10;;;;;;5056595;28;1379;-77
2022/05/20 15:10:35;;;;;;;;;;;20.00;62.10;;;;;;5041092;28;1170;-77
2022/05/20 15:13:00;;;;;;;;;;;20.00;62.20;;;;;;5042392;28;1437;-77
2022/05/20 15:15:26;;;;;;;;;;;20.00;62.20;;;;;;5058758;28;1114;-78
2022/05/20 15:18:08;;;;;;;;;;;20.00;62.20;;;;;;5056703;28;1484;-77